createdAt,value
2016-03-10T00:00:25.622Z,55.11
2016-03-10T00:01:25.642Z,55.4
2016-03-10T00:02:25.659Z,55.21
2016-03-10T00:03:25.694Z,54.83
2016-03-10T00:04:25.680Z,55.02
2016-03-10T00:05:25.714Z,55.4
2016-03-10T00:06:25.723Z,55.78
2016-03-10T00:07:25.742Z,55.88
2016-03-10T00:08:25.759Z,55.11
2016-03-10T00:09:25.778Z,55.59
2016-03-10T00:10:25.797Z,55.21
2016-03-10T00:11:25.814Z,55.21
2016-03-10T00:12:25.864Z,55.5
2016-03-10T00:13:25.835Z,55.4
2016-03-10T00:14:25.869Z,55.59
2016-03-10T00:15:25.888Z,55.69
2016-03-10T00:16:25.734Z,55.78
2016-03-10T00:17:25.908Z,55.4
2016-03-10T00:18:25.928Z,55.4
2016-03-10T00:19:25.946Z,55.3
2016-03-10T00:20:25.964Z,55.21
2016-03-10T00:21:25.982Z,55.21
2016-03-10T00:22:25.985Z,55.59
2016-03-10T00:23:26.002Z,55.88
2016-03-10T00:24:26.022Z,55.59
2016-03-10T00:25:26.040Z,55.78
2016-03-10T00:26:26.058Z,55.59
2016-03-10T00:27:26.123Z,55.69
2016-03-10T00:28:26.095Z,55.59
2016-03-10T00:29:26.113Z,55.59
2016-03-10T00:30:26.225Z,55.21
2016-03-10T00:31:25.979Z,55.21
2016-03-10T00:32:26.158Z,55.21
2016-03-10T00:33:26.181Z,55.78
2016-03-10T00:34:26.198Z,55.5
2016-03-10T00:35:26.217Z,55.78
2016-03-10T00:36:26.220Z,55.78
2016-03-10T00:37:26.254Z,55.59
2016-03-10T00:38:26.263Z,55.78
2016-03-10T00:39:26.281Z,56.63
2016-03-10T00:40:26.299Z,56.07
2016-03-10T00:41:26.317Z,56.07
2016-03-10T00:42:26.337Z,55.97
2016-03-10T00:43:26.339Z,56.73
2016-03-10T00:44:26.373Z,56.54
2016-03-10T00:45:26.407Z,56.54
2016-03-10T00:46:26.395Z,56.26
2016-03-10T00:47:26.412Z,55.97
2016-03-10T00:48:26.431Z,56.45
2016-03-10T00:49:26.448Z,55.59
2016-03-10T00:50:26.467Z,56.16
2016-03-10T00:51:26.486Z,56.16
2016-03-10T00:52:26.504Z,55.59
2016-03-10T00:53:26.507Z,55.4
2016-03-10T00:54:26.541Z,55.59
2016-03-10T00:55:26.558Z,55.88
2016-03-10T00:56:26.561Z,55.97
2016-03-10T00:57:26.595Z,55.59
2016-03-10T00:58:26.597Z,55.78
2016-03-10T00:59:26.617Z,55.97
2016-03-10T01:00:26.635Z,56.45
2016-03-10T01:01:26.653Z,55.4
2016-03-10T01:02:26.671Z,56.45
2016-03-10T01:03:26.690Z,56.35
2016-03-10T01:04:26.692Z,56.63
2016-03-10T01:05:26.727Z,56.35
2016-03-10T01:06:26.729Z,56.35
2016-03-10T01:07:26.763Z,56.73
2016-03-10T01:08:26.765Z,56.26
2016-03-10T01:09:26.784Z,56.07
2016-03-10T01:10:26.802Z,56.26
2016-03-10T01:11:26.805Z,56.35
2016-03-10T01:12:26.839Z,56.07
2016-03-10T01:13:26.857Z,56.83
2016-03-10T01:14:26.860Z,57.02
2016-03-10T01:15:26.878Z,56.26
2016-03-10T01:16:26.896Z,56.63
2016-03-10T01:17:26.898Z,56.16
2016-03-10T01:18:26.933Z,56.73
2016-03-10T01:19:26.936Z,56.16
2016-03-10T01:20:26.970Z,56.73
2016-03-10T01:21:26.972Z,56.63
2016-03-10T01:22:26.991Z,56.26
2016-03-10T01:23:27.008Z,56.26
2016-03-10T01:24:27.028Z,56.26
2016-03-10T01:25:27.045Z,56.92
2016-03-10T01:26:27.064Z,56.35
2016-03-10T01:27:27.083Z,56.35
2016-03-10T01:28:27.101Z,56.26
2016-03-10T01:29:27.119Z,56.26
2016-03-10T01:30:27.122Z,56.45
2016-03-10T01:31:27.155Z,56.35
2016-03-10T01:32:27.158Z,56.35
2016-03-10T01:33:27.177Z,56.54
2016-03-10T01:34:27.211Z,56.26
2016-03-10T01:35:27.213Z,56.16
2016-03-10T01:36:27.231Z,57.02
2016-03-10T01:37:27.249Z,56.16
2016-03-10T01:38:27.268Z,56.35
2016-03-10T01:39:27.271Z,56.35
2016-03-10T01:40:27.289Z,56.35
2016-03-10T01:41:27.324Z,57.11
2016-03-10T01:42:27.326Z,56.73
2016-03-10T01:43:27.360Z,56.26
2016-03-10T01:44:27.362Z,56.73
2016-03-10T01:45:27.381Z,56.35
2016-03-10T01:46:27.414Z,56.35
2016-03-10T01:47:27.418Z,56.54
2016-03-10T01:48:27.436Z,56.35
2016-03-10T01:49:27.454Z,56.35
2016-03-10T01:50:27.456Z,56.26
2016-03-10T01:51:27.490Z,56.54
2016-03-10T01:52:27.493Z,56.54
2016-03-10T01:53:27.512Z,56.73
2016-03-10T01:54:27.530Z,56.83
2016-03-10T01:55:27.548Z,56.45
2016-03-10T01:56:27.583Z,56.73
2016-03-10T01:57:27.585Z,56.63
2016-03-10T01:58:27.603Z,56.73
2016-03-10T01:59:27.636Z,56.26
2016-03-10T02:00:27.624Z,56.63
2016-03-10T02:01:27.658Z,56.73
2016-03-10T02:02:27.660Z,56.45
2016-03-10T02:03:27.679Z,56.83
2016-03-10T02:04:27.697Z,56.45
2016-03-10T02:05:27.715Z,56.73
2016-03-10T02:06:27.735Z,56.73
2016-03-10T02:07:27.752Z,56.63
2016-03-10T02:08:27.755Z,56.83
2016-03-10T02:09:27.789Z,56.63
2016-03-10T02:10:27.792Z,56.54
2016-03-10T02:11:27.826Z,56.63
2016-03-10T02:12:27.829Z,56.63
2016-03-10T02:13:27.846Z,56.63
2016-03-10T02:14:27.865Z,56.92
2016-03-10T02:15:27.884Z,56.83
2016-03-10T02:16:27.901Z,56.73
2016-03-10T02:17:27.904Z,57.02
2016-03-10T02:18:27.937Z,57.02
2016-03-10T02:19:27.940Z,56.92
2016-03-10T02:20:27.959Z,56.73
2016-03-10T02:21:27.978Z,56.83
2016-03-10T02:22:27.995Z,57.02
2016-03-10T02:23:28.015Z,57.02
2016-03-10T02:24:28.033Z,56.73
2016-03-10T02:25:28.051Z,57.02
2016-03-10T02:26:28.053Z,56.83
2016-03-10T02:27:28.072Z,56.92
2016-03-10T02:28:28.105Z,57.02
2016-03-10T02:29:28.125Z,56.92
2016-03-10T02:30:28.127Z,57.02
2016-03-10T02:31:28.145Z,56.73
2016-03-10T02:32:28.163Z,57.11
2016-03-10T02:33:28.182Z,56.73
2016-03-10T02:34:28.200Z,56.73
2016-03-10T02:35:28.202Z,56.92
2016-03-10T02:36:28.252Z,57.11
2016-03-10T02:37:28.239Z,56.63
2016-03-10T02:38:28.258Z,56.73
2016-03-10T02:39:28.291Z,56.92
2016-03-10T02:40:28.294Z,56.73
2016-03-10T02:41:28.312Z,56.92
2016-03-10T02:42:28.331Z,56.92
2016-03-10T02:43:28.349Z,56.92
2016-03-10T02:44:28.383Z,57.02
2016-03-10T02:45:28.370Z,56.54
2016-03-10T02:46:28.388Z,56.54
2016-03-10T02:47:28.406Z,56.63
2016-03-10T02:48:28.426Z,56.63
2016-03-10T02:49:28.459Z,56.73
2016-03-10T02:50:28.462Z,56.54
2016-03-10T02:51:28.495Z,57.02
2016-03-10T02:52:28.484Z,57.02
2016-03-10T02:53:28.579Z,56.92
2016-03-10T02:54:28.535Z,56.73
2016-03-10T02:55:28.584Z,56.83
2016-03-10T02:56:28.572Z,56.92
2016-03-10T02:57:28.575Z,56.92
2016-03-10T02:58:28.593Z,57.21
2016-03-10T02:59:28.611Z,56.83
2016-03-10T03:00:28.613Z,56.92
2016-03-10T03:01:28.647Z,57.11
2016-03-10T03:02:28.666Z,56.83
2016-03-10T03:03:28.684Z,56.83
2016-03-10T03:04:28.686Z,56.92
2016-03-10T03:05:28.705Z,57.02
2016-03-10T03:06:28.739Z,57.11
2016-03-10T03:07:28.742Z,57.21
2016-03-10T03:08:28.760Z,57.21
2016-03-10T03:09:28.779Z,56.63
2016-03-10T03:10:28.796Z,56.92
2016-03-10T03:11:28.799Z,57.11
2016-03-10T03:12:28.833Z,57.02
2016-03-10T03:13:28.836Z,56.92
2016-03-10T03:14:28.854Z,56.73
2016-03-10T03:15:28.873Z,57.3
2016-03-10T03:16:28.907Z,57.11
2016-03-10T03:17:28.910Z,57.11
2016-03-10T03:18:28.912Z,57.11
2016-03-10T03:19:28.946Z,57.11
2016-03-10T03:20:28.965Z,57.02
2016-03-10T03:21:28.968Z,57.11
2016-03-10T03:22:29.017Z,57.02
2016-03-10T03:23:29.004Z,57.02
2016-03-10T03:24:29.022Z,57.02
2016-03-10T03:25:29.040Z,56.83
2016-03-10T03:26:29.059Z,56.83
2016-03-10T03:27:29.078Z,57.11
2016-03-10T03:28:29.080Z,56.92
2016-03-10T03:29:29.097Z,56.73
2016-03-10T03:30:29.131Z,57.21
2016-03-10T03:31:29.134Z,56.92
2016-03-10T03:32:29.153Z,56.92
2016-03-10T03:33:29.171Z,57.21
2016-03-10T03:34:29.189Z,57.11
2016-03-10T03:35:29.224Z,57.11
2016-03-10T03:36:29.242Z,57.3
2016-03-10T03:37:29.244Z,56.92
2016-03-10T03:38:29.246Z,57.11
2016-03-10T03:39:29.265Z,57.3
2016-03-10T03:40:29.283Z,57.11
2016-03-10T03:41:29.302Z,57.4
2016-03-10T03:42:29.320Z,57.5
2016-03-10T03:43:29.323Z,57.4
2016-03-10T03:44:29.356Z,57.4
2016-03-10T03:45:29.359Z,57.3
2016-03-10T03:46:29.378Z,57.3
2016-03-10T03:47:29.396Z,57.11
2016-03-10T03:48:29.414Z,57.5
2016-03-10T03:49:29.433Z,57.21
2016-03-10T03:50:29.451Z,57.68
2016-03-10T03:51:29.485Z,57.5
2016-03-10T03:52:29.487Z,57.59
2016-03-10T03:53:29.490Z,57.3
2016-03-10T03:54:29.509Z,57.5
2016-03-10T03:55:29.528Z,57.5
2016-03-10T03:56:29.545Z,57.3
2016-03-10T03:57:29.564Z,57.3
2016-03-10T03:58:29.581Z,57.4
2016-03-10T03:59:29.600Z,57.4
2016-03-10T04:00:29.603Z,57.97
2016-03-10T04:01:29.684Z,57.78
2016-03-10T04:02:29.639Z,57.59
2016-03-10T04:03:29.658Z,57.4
2016-03-10T04:04:29.677Z,57.87
2016-03-10T04:05:29.695Z,57.59
2016-03-10T04:06:29.713Z,57.5
2016-03-10T04:07:29.716Z,57.59
2016-03-10T04:08:29.749Z,57.4
2016-03-10T04:09:29.752Z,57.97
2016-03-10T04:10:29.771Z,57.78
2016-03-10T04:11:29.804Z,57.59
2016-03-10T04:12:29.807Z,57.87
2016-03-10T04:13:29.825Z,57.3
2016-03-10T04:14:29.844Z,57.3
2016-03-10T04:15:29.862Z,57.68
2016-03-10T04:16:29.880Z,58.06
2016-03-10T04:17:29.882Z,57.78
2016-03-10T04:18:29.902Z,57.97
2016-03-10T04:19:29.920Z,57.59
2016-03-10T04:20:29.938Z,57.68
2016-03-10T04:21:29.973Z,57.78
2016-03-10T04:22:29.976Z,57.3
2016-03-10T04:23:29.993Z,57.97
2016-03-10T04:24:29.996Z,57.68
2016-03-10T04:25:30.015Z,57.68
2016-03-10T04:26:30.048Z,57.59
2016-03-10T04:27:30.050Z,57.97
2016-03-10T04:28:30.053Z,57.97
2016-03-10T04:29:30.087Z,57.5
2016-03-10T04:30:30.106Z,57.59
2016-03-10T04:31:30.108Z,57.97
2016-03-10T04:32:30.127Z,57.78
2016-03-10T04:33:30.176Z,57.97
2016-03-10T04:34:30.164Z,57.68
2016-03-10T04:35:30.197Z,58.16
2016-03-10T04:36:30.199Z,58.16
2016-03-10T04:37:30.218Z,57.87
2016-03-10T04:38:30.221Z,57.68
2016-03-10T04:39:30.255Z,58.16
2016-03-10T04:40:30.257Z,57.78
2016-03-10T04:41:30.276Z,57.97
2016-03-10T04:42:30.309Z,57.4
2016-03-10T04:43:30.312Z,57.97
2016-03-10T04:44:30.330Z,57.97
2016-03-10T04:45:30.349Z,57.78
2016-03-10T04:46:30.367Z,57.87
2016-03-10T04:47:30.385Z,57.97
2016-03-10T04:48:30.388Z,58.06
2016-03-10T04:49:30.423Z,57.78
2016-03-10T04:50:30.440Z,58.25
2016-03-10T04:51:30.443Z,57.68
2016-03-10T04:52:30.476Z,58.16
2016-03-10T04:53:30.324Z,58.06
2016-03-10T04:54:30.498Z,57.68
2016-03-10T04:55:30.501Z,57.78
2016-03-10T04:56:30.519Z,57.97
2016-03-10T04:57:30.537Z,57.87
2016-03-10T04:58:30.555Z,57.87
2016-03-10T04:59:30.590Z,57.78
2016-03-10T05:00:30.592Z,57.68
2016-03-10T05:01:30.611Z,58.06
2016-03-10T05:02:30.660Z,57.97
2016-03-10T05:03:30.631Z,57.87
2016-03-10T05:04:30.666Z,57.87
2016-03-10T05:05:30.668Z,57.97
2016-03-10T05:06:30.686Z,57.59
2016-03-10T05:07:30.705Z,58.25
2016-03-10T05:08:30.724Z,57.68
2016-03-10T05:09:30.757Z,57.68
2016-03-10T05:10:30.760Z,57.78
2016-03-10T05:11:30.778Z,57.59
2016-03-10T05:12:30.781Z,57.78
2016-03-10T05:13:30.800Z,58.73
2016-03-10T05:14:30.833Z,57.59
2016-03-10T05:15:30.852Z,57.59
2016-03-10T05:16:30.854Z,58.63
2016-03-10T05:17:30.873Z,58.35
2016-03-10T05:18:30.891Z,57.78
2016-03-10T05:19:30.909Z,57.78
2016-03-10T05:20:30.912Z,58.35
2016-03-10T05:21:30.930Z,58.44
2016-03-10T05:22:30.964Z,58.44
2016-03-10T05:23:30.967Z,58.44
2016-03-10T05:24:30.985Z,58.35
2016-03-10T05:25:31.003Z,58.54
2016-03-10T05:26:31.006Z,58.44
2016-03-10T05:27:31.040Z,58.44
2016-03-10T05:28:31.043Z,58.44
2016-03-10T05:29:31.076Z,58.44
2016-03-10T05:30:31.079Z,58.44
2016-03-10T05:31:31.098Z,58.25
2016-03-10T05:32:31.116Z,58.44
2016-03-10T05:33:31.119Z,58.25
2016-03-10T05:34:31.152Z,58.54
2016-03-10T05:35:31.155Z,58.44
2016-03-10T05:36:31.189Z,58.35
2016-03-10T05:37:31.191Z,58.44
2016-03-10T05:38:31.210Z,58.16
2016-03-10T05:39:31.244Z,58.63
2016-03-10T05:40:31.246Z,58.16
2016-03-10T05:41:31.265Z,58.44
2016-03-10T05:42:31.268Z,58.25
2016-03-10T05:43:31.286Z,58.44
2016-03-10T05:44:31.321Z,58.44
2016-03-10T05:45:31.323Z,58.35
2016-03-10T05:46:31.341Z,58.73
2016-03-10T05:47:31.360Z,58.44
2016-03-10T05:48:31.378Z,58.73
2016-03-10T05:49:31.412Z,58.44
2016-03-10T05:50:31.399Z,58.35
2016-03-10T05:51:31.418Z,58.92
2016-03-10T05:52:31.451Z,58.92
2016-03-10T05:53:31.454Z,58.83
2016-03-10T05:54:31.472Z,58.16
2016-03-10T05:55:31.475Z,58.44
2016-03-10T05:56:31.509Z,59.11
2016-03-10T05:57:31.526Z,58.92
2016-03-10T05:58:31.529Z,59.01
2016-03-10T05:59:31.548Z,58.83
2016-03-10T06:00:31.566Z,58.83
2016-03-10T06:01:31.584Z,58.92
2016-03-10T06:02:31.602Z,59.01
2016-03-10T06:03:31.621Z,58.73
2016-03-10T06:04:31.639Z,58.73
2016-03-10T06:05:31.642Z,58.73
2016-03-10T06:06:31.674Z,58.73
2016-03-10T06:07:31.692Z,58.73
2016-03-10T06:08:31.695Z,58.73
2016-03-10T06:09:31.714Z,58.83
2016-03-10T06:10:31.732Z,58.83
2016-03-10T06:11:31.750Z,58.83
2016-03-10T06:12:31.768Z,58.83
2016-03-10T06:13:31.771Z,58.63
2016-03-10T06:14:31.789Z,58.92
2016-03-10T06:15:31.808Z,58.63
2016-03-10T06:16:31.825Z,58.83
2016-03-10T06:17:31.844Z,58.63
2016-03-10T06:18:31.863Z,59.01
2016-03-10T06:19:31.881Z,58.63
2016-03-10T06:20:31.899Z,58.83
2016-03-10T06:21:31.902Z,58.63
2016-03-10T06:22:31.935Z,58.83
2016-03-10T06:23:31.938Z,58.73
2016-03-10T06:24:31.957Z,58.63
2016-03-10T06:25:31.991Z,58.92
2016-03-10T06:26:31.993Z,58.92
2016-03-10T06:27:31.996Z,58.92
2016-03-10T06:28:32.045Z,58.63
2016-03-10T06:29:32.048Z,59.11
2016-03-10T06:30:32.051Z,59.3
2016-03-10T06:31:32.085Z,58.83
2016-03-10T06:32:32.087Z,58.83
2016-03-10T06:33:32.107Z,59.2
2016-03-10T06:34:32.124Z,59.01
2016-03-10T06:35:32.143Z,58.83
2016-03-10T06:36:32.161Z,58.92
2016-03-10T06:37:32.164Z,58.83
2016-03-10T06:38:32.181Z,58.63
2016-03-10T06:39:32.201Z,58.73
2016-03-10T06:40:32.219Z,59.01
2016-03-10T06:41:32.237Z,58.83
2016-03-10T06:42:32.239Z,58.83
2016-03-10T06:43:32.258Z,59.3
2016-03-10T06:44:32.276Z,58.92
2016-03-10T06:45:32.311Z,58.83
2016-03-10T06:46:32.313Z,58.92
2016-03-10T06:47:32.347Z,59.01
2016-03-10T06:48:32.350Z,58.83
2016-03-10T06:49:32.369Z,59.01
2016-03-10T06:50:32.386Z,59.01
2016-03-10T06:51:32.388Z,59.11
2016-03-10T06:52:32.408Z,59.3
2016-03-10T06:53:32.425Z,59.39
2016-03-10T06:54:32.444Z,59.3
2016-03-10T06:55:32.462Z,59.39
2016-03-10T06:56:32.480Z,59.2
2016-03-10T06:57:32.498Z,59.49
2016-03-10T06:58:32.502Z,59.58
2016-03-10T06:59:32.520Z,59.68
2016-03-10T07:00:32.694Z,59.77
2016-03-10T07:01:32.682Z,59.39
2016-03-10T07:02:32.575Z,59.58
2016-03-10T07:03:32.609Z,60.06
2016-03-10T07:04:32.721Z,60.35
2016-03-10T07:05:32.786Z,60.16
2016-03-10T07:06:32.757Z,59.96
2016-03-10T07:07:32.792Z,59.77
2016-03-10T07:08:32.795Z,59.96
2016-03-10T07:09:32.828Z,59.96
2016-03-10T07:10:32.830Z,59.87
2016-03-10T07:11:32.833Z,59.77
2016-03-10T07:12:32.883Z,59.58
2016-03-10T07:13:32.933Z,59.87
2016-03-10T07:14:32.919Z,60.06
2016-03-10T07:15:32.923Z,59.96
2016-03-10T07:16:32.925Z,60.06
2016-03-10T07:17:32.990Z,59.77
2016-03-10T07:18:32.992Z,59.87
2016-03-10T07:19:33.011Z,60.06
2016-03-10T07:20:33.029Z,60.06
2016-03-10T07:21:33.064Z,59.96
2016-03-10T07:22:33.050Z,59.77
2016-03-10T07:23:33.053Z,60.06
2016-03-10T07:24:33.071Z,59.77
2016-03-10T07:25:33.090Z,60.06
2016-03-10T07:26:33.093Z,59.96
2016-03-10T07:27:33.095Z,60.44
2016-03-10T07:28:33.129Z,60.35
2016-03-10T07:29:33.163Z,60.72
2016-03-10T07:30:33.166Z,60.16
2016-03-10T07:31:33.168Z,60.25
2016-03-10T07:32:33.202Z,60.25
2016-03-10T07:33:33.220Z,60.25
2016-03-10T07:34:33.177Z,60.16
2016-03-10T07:35:33.273Z,60.44
2016-03-10T07:36:33.276Z,60.06
2016-03-10T07:37:33.278Z,60.35
2016-03-10T07:38:33.328Z,60.25
2016-03-10T07:39:33.331Z,60.25
2016-03-10T07:40:33.364Z,60.44
2016-03-10T07:41:33.414Z,60.35
2016-03-10T07:42:33.370Z,60.53
2016-03-10T07:43:33.389Z,60.44
2016-03-10T07:44:33.391Z,60.35
2016-03-10T07:45:33.409Z,60.44
2016-03-10T07:46:33.381Z,61.01
2016-03-10T07:47:33.456Z,60.82
2016-03-10T07:48:33.467Z,60.63
2016-03-10T07:49:33.417Z,60.72
2016-03-10T07:50:33.491Z,60.63
2016-03-10T07:51:33.488Z,60.82
2016-03-10T07:52:33.471Z,60.72
2016-03-10T07:53:33.425Z,61.01
2016-03-10T07:54:33.472Z,61.1
2016-03-10T07:55:33.550Z,60.82
2016-03-10T07:56:33.505Z,60.63
2016-03-10T07:57:33.537Z,60.63
2016-03-10T07:58:33.509Z,60.44
2016-03-10T07:59:33.603Z,60.72
2016-03-10T08:00:33.543Z,60.44
2016-03-10T08:01:33.639Z,60.63
2016-03-10T08:02:33.594Z,60.63
2016-03-10T08:03:33.659Z,60.91
2016-03-10T08:04:33.708Z,60.44
2016-03-10T08:05:33.710Z,60.72
2016-03-10T08:06:33.713Z,60.72
2016-03-10T08:07:33.746Z,61.04
2016-03-10T08:08:33.780Z,60.35
2016-03-10T08:09:33.751Z,60.35
2016-03-10T08:10:33.817Z,60.35
2016-03-10T08:11:33.789Z,60.35
2016-03-10T08:12:33.822Z,60.44
2016-03-10T08:13:33.840Z,60.85
2016-03-10T08:14:33.842Z,61.04
2016-03-10T08:15:33.862Z,60.85
2016-03-10T08:16:33.833Z,60.63
2016-03-10T08:17:33.930Z,60.47
2016-03-10T08:18:33.933Z,60.38
2016-03-10T08:19:33.966Z,60.66
2016-03-10T08:20:33.938Z,60.18
2016-03-10T08:21:33.971Z,60.63
2016-03-10T08:22:34.022Z,60.44
2016-03-10T08:23:34.008Z,60.28
2016-03-10T08:24:33.995Z,59.99
2016-03-10T08:25:33.232Z,60.47
2016-03-10T08:26:34.063Z,60.75
2016-03-10T08:27:34.066Z,60.57
2016-03-10T08:28:34.052Z,60.47
2016-03-10T08:29:34.087Z,60.47
2016-03-10T08:30:34.105Z,60.63
2016-03-10T08:31:33.999Z,60.38
2016-03-10T08:32:34.126Z,60.85
2016-03-10T08:33:34.160Z,60.38
2016-03-10T08:34:34.194Z,60.47
2016-03-10T08:35:34.196Z,60.66
2016-03-10T08:36:34.215Z,60.57
2016-03-10T08:37:34.233Z,60.47
2016-03-10T08:38:34.237Z,60.66
2016-03-10T08:39:34.270Z,60.47
2016-03-10T08:40:34.288Z,60.47
2016-03-10T08:41:34.245Z,60.57
2016-03-10T08:42:34.325Z,60.47
2016-03-10T08:43:34.328Z,60.18
2016-03-10T08:44:34.346Z,60.57
2016-03-10T08:45:34.318Z,60.28
2016-03-10T08:46:34.320Z,59.99
2016-03-10T08:47:34.353Z,60.38
2016-03-10T08:48:34.450Z,60.57
2016-03-10T08:49:34.422Z,60.28
2016-03-10T08:50:34.439Z,60.47
2016-03-10T08:51:34.442Z,60.09
2016-03-10T08:52:34.492Z,60.57
2016-03-10T08:53:34.464Z,60.57
2016-03-10T08:54:34.514Z,60.57
2016-03-10T08:55:34.547Z,60.09
2016-03-10T08:56:34.535Z,60.38
2016-03-10T08:57:34.538Z,60.66
2016-03-10T08:58:34.555Z,60.38
2016-03-10T08:59:34.573Z,60.18
2016-03-10T09:00:34.607Z,60.38
2016-03-10T09:01:34.610Z,60.47
2016-03-10T09:02:34.676Z,60.18
2016-03-10T09:03:34.678Z,60.94
2016-03-10T09:04:34.650Z,60.18
2016-03-10T09:05:34.699Z,60.66
2016-03-10T09:06:34.698Z,60.38
2016-03-10T09:07:34.716Z,60.66
2016-03-10T09:08:34.766Z,60.38
2016-03-10T09:09:34.738Z,60.66
2016-03-10T09:10:34.755Z,60.57
2016-03-10T09:11:34.805Z,60.09
2016-03-10T09:12:34.824Z,60.09
2016-03-10T09:13:34.717Z,60.18
2016-03-10T09:14:34.751Z,60.09
2016-03-10T09:15:34.862Z,60.18
2016-03-10T09:16:34.866Z,59.8
2016-03-10T09:17:34.899Z,60.09
2016-03-10T09:18:34.949Z,59.9
2016-03-10T09:19:34.920Z,59.9
2016-03-10T09:20:34.985Z,59.71
2016-03-10T09:21:35.004Z,59.9
2016-03-10T09:22:34.959Z,60.09
2016-03-10T09:23:34.979Z,59.9
2016-03-10T09:24:35.012Z,59.8
2016-03-10T09:25:35.045Z,59.8
2016-03-10T09:26:35.048Z,59.71
2016-03-10T09:27:35.020Z,59.99
2016-03-10T09:28:35.070Z,59.99
2016-03-10T09:29:35.120Z,59.99
2016-03-10T09:30:35.154Z,59.9
2016-03-10T09:31:35.156Z,60.09
2016-03-10T09:32:35.158Z,59.8
2016-03-10T09:33:35.192Z,60.09
2016-03-10T09:34:35.211Z,59.71
2016-03-10T09:35:35.213Z,59.9
2016-03-10T09:36:35.231Z,59.64
2016-03-10T09:37:35.250Z,59.55
2016-03-10T09:38:35.253Z,59.71
2016-03-10T09:39:35.286Z,59.55
2016-03-10T09:40:35.306Z,59.55
2016-03-10T09:41:35.308Z,59.83
2016-03-10T09:42:35.358Z,59.64
2016-03-10T09:43:35.329Z,59.55
2016-03-10T09:44:35.347Z,59.27
2016-03-10T09:45:35.366Z,59.45
2016-03-10T09:46:35.352Z,59.27
2016-03-10T09:47:35.386Z,59.36
2016-03-10T09:48:35.468Z,60.02
2016-03-10T09:49:35.423Z,59.45
2016-03-10T09:50:35.462Z,58.98
2016-03-10T09:51:36.012Z,59.45
2016-03-10T09:52:35.499Z,59.83
2016-03-10T09:53:35.501Z,59.36
2016-03-10T09:54:35.519Z,59.27
2016-03-10T09:55:35.554Z,59.45
2016-03-10T09:56:35.556Z,59.55
2016-03-10T09:57:35.590Z,59.55
2016-03-10T09:58:35.609Z,59.17
2016-03-10T09:59:35.612Z,59.55
2016-03-10T10:00:35.645Z,59.55
2016-03-10T10:01:35.678Z,59.64
2016-03-10T10:02:35.635Z,59.64
2016-03-10T10:03:35.716Z,59.27
2016-03-10T10:04:35.672Z,59.36
2016-03-10T10:05:35.736Z,59.55
2016-03-10T10:06:35.692Z,59.27
2016-03-10T10:07:35.789Z,59.17
2016-03-10T10:08:35.775Z,59.07
2016-03-10T10:09:35.778Z,58.88
2016-03-10T10:10:35.781Z,58.88
2016-03-10T10:11:35.830Z,58.69
2016-03-10T10:12:35.833Z,58.79
2016-03-10T10:13:35.836Z,59.27
2016-03-10T10:14:35.901Z,59.17
2016-03-10T10:15:35.888Z,58.79
2016-03-10T10:16:35.859Z,58.88
2016-03-10T10:17:35.879Z,58.79
2016-03-10T10:18:35.927Z,58.69
2016-03-10T10:19:35.930Z,58.69
2016-03-10T10:20:35.965Z,58.98
2016-03-10T10:21:35.920Z,58.98
2016-03-10T10:22:36.001Z,58.62
2016-03-10T10:23:36.051Z,58.72
2016-03-10T10:24:36.069Z,58.88
2016-03-10T10:25:36.071Z,58.79
2016-03-10T10:26:35.933Z,58.91
2016-03-10T10:27:35.967Z,58.79
2016-03-10T10:28:35.970Z,59.1
2016-03-10T10:29:35.989Z,58.31
2016-03-10T10:30:36.007Z,58.53
2016-03-10T10:31:36.041Z,58.15
2016-03-10T10:32:36.044Z,58.62
2016-03-10T10:33:36.062Z,58.4
2016-03-10T10:34:36.080Z,58.44
2016-03-10T10:35:36.098Z,58.53
2016-03-10T10:36:36.117Z,58.34
2016-03-10T10:37:36.135Z,58.53
2016-03-10T10:38:36.153Z,58.44
2016-03-10T10:39:36.172Z,58.44
2016-03-10T10:40:36.190Z,58.59
2016-03-10T10:41:36.208Z,58.31
2016-03-10T10:42:36.211Z,57.84
2016-03-10T10:43:36.244Z,57.58
2016-03-10T10:44:36.247Z,57.93
2016-03-10T10:45:36.266Z,57.84
2016-03-10T10:46:36.284Z,58.5
2016-03-10T10:47:36.303Z,58.69
2016-03-10T10:48:36.321Z,58.34
2016-03-10T10:49:36.340Z,58.44
2016-03-10T10:50:36.357Z,58.34
2016-03-10T10:51:36.376Z,58.34
2016-03-10T10:52:36.394Z,58.44
2016-03-10T10:53:36.428Z,58.62
2016-03-10T10:54:36.431Z,58.53
2016-03-10T10:55:36.449Z,58.62
2016-03-10T10:56:36.468Z,58.62
2016-03-10T10:57:36.486Z,58.81
2016-03-10T10:58:36.504Z,57.67
2016-03-10T10:59:36.522Z,57.67
2016-03-10T11:00:36.540Z,57.77
2016-03-10T11:01:36.559Z,58.81
2016-03-10T11:02:36.578Z,58.62
2016-03-10T11:03:36.596Z,58.06
2016-03-10T11:04:36.614Z,57.87
2016-03-10T11:05:36.633Z,58.22
2016-03-10T11:06:36.650Z,58.31
2016-03-10T11:07:36.669Z,58.34
2016-03-10T11:08:36.671Z,58.34
2016-03-10T11:09:36.722Z,57.65
2016-03-10T11:10:36.724Z,57.67
2016-03-10T11:11:36.741Z,58.34
2016-03-10T11:12:36.885Z,58.81
2016-03-10T11:13:36.763Z,58.44
2016-03-10T11:14:36.782Z,57.65
2016-03-10T11:15:36.800Z,58.5
2016-03-10T11:16:36.818Z,57.93
2016-03-10T11:17:36.836Z,58.72
2016-03-10T11:18:36.902Z,57.77
2016-03-10T11:19:36.873Z,58.81
2016-03-10T11:20:36.891Z,57.87
2016-03-10T11:21:36.893Z,58.06
2016-03-10T11:22:36.943Z,57.87
2016-03-10T11:23:36.946Z,58.25
2016-03-10T11:24:36.965Z,58.62
2016-03-10T11:25:36.982Z,58.72
2016-03-10T11:26:37.001Z,58.62
2016-03-10T11:27:37.020Z,58.62
2016-03-10T11:28:37.038Z,58.62
2016-03-10T11:29:37.056Z,58.44
2016-03-10T11:30:37.075Z,58.81
2016-03-10T11:31:37.093Z,57.96
2016-03-10T11:32:37.111Z,58.34
2016-03-10T11:33:37.129Z,58.34
2016-03-10T11:34:37.148Z,57.87
2016-03-10T11:35:37.181Z,58.72
2016-03-10T11:36:37.184Z,58.44
2016-03-10T11:37:37.203Z,57.67
2016-03-10T11:38:37.222Z,57.96
2016-03-10T11:39:37.239Z,58.06
2016-03-10T11:40:37.258Z,57.87
2016-03-10T11:41:37.260Z,57.87
2016-03-10T11:42:37.294Z,57.77
2016-03-10T11:43:37.297Z,58.34
2016-03-10T11:44:37.315Z,58.44
2016-03-10T11:45:37.365Z,58.25
2016-03-10T11:46:37.368Z,57.87
2016-03-10T11:47:37.370Z,57.96
2016-03-10T11:48:37.404Z,58.34
2016-03-10T11:49:37.407Z,57.77
2016-03-10T11:50:37.425Z,58.25
2016-03-10T11:51:37.443Z,58.06
2016-03-10T11:52:37.462Z,57.87
2016-03-10T11:53:37.480Z,57.67
2016-03-10T11:54:37.499Z,57.67
2016-03-10T11:55:37.517Z,57.77
2016-03-10T11:56:37.535Z,58.06
2016-03-10T11:57:37.554Z,57.67
2016-03-10T11:58:37.572Z,58.25
2016-03-10T11:59:37.590Z,58.25
2016-03-10T12:00:37.609Z,58.25
2016-03-10T12:01:37.627Z,58.06
2016-03-10T12:02:37.645Z,57.87
2016-03-10T12:03:37.664Z,57.96
2016-03-10T12:04:37.681Z,58.25
2016-03-10T12:05:37.716Z,58.06
2016-03-10T12:06:37.717Z,57.58
2016-03-10T12:07:37.737Z,58.34
2016-03-10T12:08:37.756Z,57.77
2016-03-10T12:09:37.757Z,57.87
2016-03-10T12:10:37.776Z,58.06
2016-03-10T12:11:37.794Z,58.44
2016-03-10T12:12:37.827Z,58.25
2016-03-10T12:13:37.846Z,57.67
2016-03-10T12:14:37.849Z,57.96
2016-03-10T12:15:37.899Z,57.58
2016-03-10T12:16:37.885Z,57.96
2016-03-10T12:17:37.920Z,57.67
2016-03-10T12:18:37.938Z,57.87
2016-03-10T12:19:37.941Z,58.06
2016-03-10T12:20:37.991Z,57.96
2016-03-10T12:21:37.977Z,57.58
2016-03-10T12:22:38.011Z,57.96
2016-03-10T12:23:38.014Z,57.77
2016-03-10T12:24:38.032Z,57.96
2016-03-10T12:25:38.051Z,57.87
2016-03-10T12:26:38.069Z,57.96
2016-03-10T12:27:38.087Z,57.87
2016-03-10T12:28:38.262Z,58.15
2016-03-10T12:29:38.124Z,57.96
2016-03-10T12:30:38.143Z,58.06
2016-03-10T12:31:38.192Z,57.58
2016-03-10T12:32:38.179Z,57.58
2016-03-10T12:33:38.198Z,57.48
2016-03-10T12:34:38.215Z,57.48
2016-03-10T12:35:38.234Z,57.96
2016-03-10T12:36:38.253Z,58.06
2016-03-10T12:37:38.270Z,58.06
2016-03-10T12:38:38.320Z,57.77
2016-03-10T12:39:38.307Z,57.96
2016-03-10T12:40:38.326Z,57.77
2016-03-10T12:41:38.344Z,57.67
2016-03-10T12:42:38.362Z,57.96
2016-03-10T12:43:38.381Z,58.06
2016-03-10T12:44:38.399Z,57.67
2016-03-10T12:45:38.417Z,57.87
2016-03-10T12:46:38.436Z,57.77
2016-03-10T12:47:38.453Z,57.87
2016-03-10T12:48:38.472Z,58.06
2016-03-10T12:49:38.490Z,57.87
2016-03-10T12:50:38.508Z,57.39
2016-03-10T12:51:38.527Z,58.15
2016-03-10T12:52:38.546Z,57.87
2016-03-10T12:53:38.564Z,57.87
2016-03-10T12:54:38.582Z,57.67